Time;durP1;ratioP1;P1;durP2;ratioP2;P2;SDS_P1;SDS_P2;PMS_P1;PMS_P2;Temp;Humidity;BMP_temperature;BMP_pressure;BME280_temperature;BME280_humidity;BME280_pressure;Samples;Min_cycle;Max_cycle;Signal;HPM_P1;HPM_P2
2022/05/23 00:01:58;;;;;;;343.73;109.45;;;;;;;;;;6335631;22;20014;-93
2022/05/23 00:04:25;;;;;;;287.50;98.22;;;;;;;;;;6308932;22;20182;-95
2022/05/23 00:06:51;;;;;;;376.30;116.22;;;;;;;;;;6336978;22;20024;-91
2022/05/23 00:09:17;;;;;;;300.17;101.43;;;;;;;;;;6336903;22;20005;-93
2022/05/23 00:11:43;;;;;;;251.43;89.93;;;;;;;;;;6335546;22;20002;-93
2022/05/23 00:14:12;;;;;;;258.08;93.50;;;;;;;;;;6335622;22;20002;-93
2022/05/23 00:16:40;;;;;;;287.73;99.55;;;;;;;;;;6309652;22;20002;-94
2022/05/23 00:19:09;;;;;;;581.75;171.02;;;;;;;;;;6315283;22;20009;-93
2022/05/23 00:21:35;;;;;;;525.33;150.88;;;;;;;;;;6355634;22;20007;-93
2022/05/23 00:24:02;;;;;;;454.70;133.77;;;;;;;;;;6335573;22;20007;-92
2022/05/23 00:26:35;;;;;;;413.25;127.15;;;;;;;;;;6364190;22;20040;-92
2022/05/23 00:29:43;;;;;;;615.33;186.40;;;;;;;;;;6362784;22;20006;-92
2022/05/23 00:35:18;;;;;;;354.13;114.70;;;;;;;;;;6272485;22;20015;-92
2022/05/23 00:37:45;;;;;;;436.02;132.07;;;;;;;;;;6270068;23;20004;-92
2022/05/23 00:40:31;;;;;;;321.77;108.25;;;;;;;;;;6270882;22;20000;-92
2022/05/23 00:43:19;;;;;;;345.88;112.93;;;;;;;;;;6265007;23;20016;-93
2022/05/23 00:45:54;;;;;;;290.10;98.88;;;;;;;;;;6270239;23;20004;-92
2022/05/23 00:48:42;;;;;;;266.73;96.32;;;;;;;;;;6209846;23;20009;-89
2022/05/23 00:51:14;;;;;;;295.05;104.13;;;;;;;;;;6202655;23;20005;-91
2022/05/23 00:53:42;;;;;;;330.23;110.22;;;;;;;;;;6202300;23;20495;-91
2022/05/23 00:56:28;;;;;;;;;;;;;;;;;;6175755;23;19990;-90
2022/05/23 00:58:57;;;;;;;335.70;114.95;;;;;;;;;;6168718;23;19908;-93
2022/05/23 01:01:27;;;;;;;323.77;110.50;;;;;;;;;;6167540;23;20001;-93
2022/05/23 01:03:58;;;;;;;283.52;99.97;;;;;;;;;;6149297;23;19989;-90
2022/05/23 01:06:25;;;;;;;295.98;101.80;;;;;;;;;;6224618;23;19993;-90
2022/05/23 01:08:57;;;;;;;357.67;117.35;;;;;;;;;;6239872;23;20021;-89
2022/05/23 01:14:52;;;;;;;440.17;135.02;;;;;;;;;;6224544;22;20025;-91
2022/05/23 01:17:48;;;;;;;428.92;131.43;;;;;;;;;;6201442;23;20001;-92
2022/05/23 01:20:35;;;;;;;440.38;126.75;;;;;;;;;;6221978;22;20482;-90
2022/05/23 01:23:08;;;;;;;379.13;121.13;;;;;;;;;;6248217;22;20007;-93
2022/05/23 01:41:37;;;;;;;279.20;100.13;;;;;;;;;;5888645;24;20075;-93
2022/05/23 01:44:03;;;;;;;361.23;119.65;;;;;;;;;;5964458;24;20000;-92
2022/05/23 01:46:38;;;;;;;340.67;115.82;;;;;;;;;;6082317;23;20009;-91
2022/05/23 01:49:12;;;;;;;238.57;90.15;;;;;;;;;;6188418;23;20001;-90
2022/05/23 01:51:38;;;;;;;275.17;98.75;;;;;;;;;;6201723;23;20059;-90
2022/05/23 01:54:07;;;;;;;246.60;92.13;;;;;;;;;;6202381;23;20009;-94
2022/05/23 01:56:44;;;;;;;206.30;81.70;;;;;;;;;;6319484;22;19991;-89
2022/05/23 02:02:09;;;;;;;;;;;;;;;;;;;;;
2022/05/23 02:04:36;;;;;;;238.75;94.68;;;;;;;;;;6328051;22;20011;-93
2022/05/23 02:07:13;;;;;;;216.00;85.72;;;;;;;;;;6335735;22;20034;-92
2022/05/23 02:13:11;;;;;;;352.90;118.80;;;;;;;;;;6276574;22;20002;-93
2022/05/23 02:15:44;;;;;;;373.80;123.82;;;;;;;;;;6320645;22;20049;-93
2022/05/23 02:18:20;;;;;;;426.08;133.55;;;;;;;;;;6324491;22;20002;-93
2022/05/23 02:21:12;;;;;;;457.40;141.60;;;;;;;;;;6314868;22;20059;-94
2022/05/23 02:24:10;;;;;;;447.75;140.20;;;;;;;;;;6311392;22;20007;-93
2022/05/23 02:26:47;;;;;;;366.38;119.97;;;;;;;;;;6257797;22;19988;-95
2022/05/23 02:29:34;;;;;;;345.92;114.57;;;;;;;;;;6328432;22;20003;-91
2022/05/23 02:32:00;;;;;;;337.13;113.93;;;;;;;;;;6294292;22;20009;-92
2022/05/23 02:34:26;;;;;;;303.33;105.07;;;;;;;;;;6322798;22;20014;-93
2022/05/23 02:36:58;;;;;;;274.67;99.80;;;;;;;;;;6316663;22;20003;-91
2022/05/23 02:39:44;;;;;;;390.45;125.03;;;;;;;;;;6311305;22;20002;-93
2022/05/23 02:42:10;;;;;;;307.70;106.32;;;;;;;;;;6310837;22;20014;-89
2022/05/23 02:44:46;;;;;;;295.00;103.03;;;;;;;;;;6315823;22;20048;-91
2022/05/23 02:47:15;;;;;;;353.65;118.63;;;;;;;;;;6312630;22;20003;-91
2022/05/23 02:49:45;;;;;;;321.83;110.13;;;;;;;;;;6302702;22;20015;-89
2022/05/23 02:52:31;;;;;;;331.52;110.85;;;;;;;;;;6289693;22;20512;-93
2022/05/23 02:54:59;;;;;;;261.88;94.75;;;;;;;;;;6320229;22;20004;-91
2022/05/23 02:57:25;;;;;;;241.50;91.63;;;;;;;;;;6318755;22;19999;-92
2022/05/23 02:59:51;;;;;;;223.30;86.32;;;;;;;;;;6325692;22;20007;-92
2022/05/23 03:05:15;;;;;;;273.83;97.18;;;;;;;;;;6327939;22;20018;-93
2022/05/23 03:07:51;;;;;;;254.35;93.07;;;;;;;;;;6298049;22;20037;-89
2022/05/23 03:10:48;;;;;;;326.23;108.95;;;;;;;;;;6307521;22;20025;-94
2022/05/23 03:13:14;;;;;;;292.58;102.85;;;;;;;;;;6293820;22;20343;-92
2022/05/23 03:15:43;;;;;;;308.83;104.65;;;;;;;;;;6341781;22;20083;-90
2022/05/23 03:18:10;;;;;;;340.98;111.53;;;;;;;;;;6314966;22;20343;-93
2022/05/23 03:20:41;;;;;;;387.98;122.78;;;;;;;;;;6337938;22;20037;-91
2022/05/23 03:28:39;;;;;;;238.30;86.47;;;;;;;;;;6336503;22;20025;-92
2022/05/23 03:31:06;;;;;;;173.32;72.20;;;;;;;;;;6336040;22;20281;-93
2022/05/23 03:33:32;;;;;;;160.05;69.63;;;;;;;;;;6336882;22;20003;-89
2022/05/23 03:35:58;;;;;;;161.88;69.30;;;;;;;;;;6308317;22;20327;-91
2022/05/23 03:38:27;;;;;;;211.00;82.90;;;;;;;;;;6308955;22;20443;-90
2022/05/23 03:40:53;;;;;;;238.38;88.40;;;;;;;;;;6339429;22;20443;-90
2022/05/23 03:43:19;;;;;;;226.30;86.53;;;;;;;;;;6322147;22;20009;-90
2022/05/23 03:45:45;;;;;;;184.65;74.88;;;;;;;;;;6364814;22;20015;-89
2022/05/23 03:48:12;;;;;;;189.30;75.88;;;;;;;;;;6338421;22;20045;-89
2022/05/23 03:50:48;;;;;;;;;;;;;;;;;;;;;
2022/05/23 03:53:35;;;;;;;296.70;104.03;;;;;;;;;;6351313;22;20022;-92
2022/05/23 03:56:01;;;;;;;300.17;103.13;;;;;;;;;;6309112;22;20007;-92
2022/05/23 03:58:30;;;;;;;341.73;111.32;;;;;;;;;;6308656;22;20010;-89
2022/05/23 04:01:07;;;;;;;369.63;119.15;;;;;;;;;;6337719;22;20347;-92
2022/05/23 04:03:34;;;;;;;356.10;116.45;;;;;;;;;;6338823;22;19999;-92
2022/05/23 04:06:00;;;;;;;362.48;117.50;;;;;;;;;;6336548;22;20427;-91
2022/05/23 04:08:27;;;;;;;382.80;122.53;;;;;;;;;;6339055;22;20003;-91
2022/05/23 04:10:55;;;;;;;471.80;144.75;;;;;;;;;;6335729;22;19999;-92
2022/05/23 04:13:21;;;;;;;376.38;120.63;;;;;;;;;;6339136;22;20447;-91
2022/05/23 04:15:58;;;;;;;428.08;136.13;;;;;;;;;;6344102;22;20372;-91
2022/05/23 04:18:24;;;;;;;406.13;130.43;;;;;;;;;;6322038;22;20006;-89
2022/05/23 04:20:51;;;;;;;442.30;135.45;;;;;;;;;;6350914;22;20011;-91
2022/05/23 04:23:23;;;;;;;471.73;150.07;;;;;;;;;;6348342;22;19998;-93
2022/05/23 04:26:00;;;;;;;490.42;152.50;;;;;;;;;;6346857;22;20003;-93
2022/05/23 04:28:26;;;;;;;518.92;160.95;;;;;;;;;;6338007;22;20494;-94
2022/05/23 04:30:52;;;;;;;525.15;163.57;;;;;;;;;;6336831;22;20351;-91
2022/05/23 04:36:03;;;;;;;609.60;196.40;;;;;;;;;;6336373;22;20014;-93
2022/05/23 04:38:29;;;;;;;573.83;182.38;;;;;;;;;;6308265;22;19999;-92
2022/05/23 04:41:05;;;;;;;;;;;;;;;;;;;;;
2022/05/23 04:43:32;;;;;;;501.73;155.02;;;;;;;;;;6336264;22;20402;-91
2022/05/23 04:45:58;;;;;;;467.92;146.88;;;;;;;;;;6337963;22;20006;-89
2022/05/23 04:51:16;;;;;;;412.70;130.73;;;;;;;;;;6336005;22;20208;-90
2022/05/23 04:53:42;;;;;;;386.60;123.88;;;;;;;;;;6335786;22;20453;-90
2022/05/23 04:56:08;;;;;;;330.80;111.20;;;;;;;;;;6335710;22;20087;-90
2022/05/23 04:58:43;;;;;;;397.65;122.70;;;;;;;;;;6335183;22;20005;-93
2022/05/23 05:01:09;;;;;;;468.45;142.90;;;;;;;;;;6308217;22;20347;-92
2022/05/23 05:03:35;;;;;;;372.48;122.40;;;;;;;;;;6335705;22;20046;-93
2022/05/23 05:06:04;;;;;;;344.73;117.30;;;;;;;;;;6335778;22;20111;-91
2022/05/23 05:08:30;;;;;;;413.80;130.35;;;;;;;;;;6335221;22;19995;-91
2022/05/23 05:11:06;;;;;;;271.67;97.88;;;;;;;;;;6308503;22;19995;-92
2022/05/23 05:13:34;;;;;;;240.68;90.28;;;;;;;;;;6311518;22;20010;-92
2022/05/23 05:16:12;;;;;;;224.55;88.45;;;;;;;;;;6315843;22;20027;-92
2022/05/23 05:18:38;;;;;;;265.55;97.15;;;;;;;;;;6337329;22;20024;-94
2022/05/23 05:21:23;;;;;;;;;;;;;;;;;;;;;
2022/05/23 05:23:59;;;;;;;237.90;91.57;;;;;;;;;;6343425;22;20022;-93
2022/05/23 05:26:29;;;;;;;231.52;90.15;;;;;;;;;;6335286;22;20003;-94
2022/05/23 05:28:55;;;;;;;237.48;90.72;;;;;;;;;;6334752;22;20510;-92
2022/05/23 05:31:39;;;;;;;226.05;87.50;;;;;;;;;;6335515;22;20003;-90
2022/05/23 05:34:12;;;;;;;247.07;93.82;;;;;;;;;;6309586;22;20086;-93
2022/05/23 05:36:48;;;;;;;208.32;81.43;;;;;;;;;;6335823;22;19999;-92
2022/05/23 05:39:17;;;;;;;203.43;82.38;;;;;;;;;;6339525;22;20048;-90
2022/05/23 05:42:01;;;;;;;206.20;82.90;;;;;;;;;;6311587;22;20011;-91
2022/05/23 05:44:32;;;;;;;260.05;93.32;;;;;;;;;;6340601;22;19994;-92
2022/05/23 05:47:00;;;;;;;256.48;91.80;;;;;;;;;;6340760;22;20041;-90
2022/05/23 05:49:30;;;;;;;323.00;106.85;;;;;;;;;;6344709;22;20018;-94
2022/05/23 05:52:06;;;;;;;202.45;79.35;;;;;;;;;;6339279;22;19999;-92
2022/05/23 05:54:45;;;;;;;;;;;;;;;;;;;;;
2022/05/23 05:57:12;;;;;;;109.30;54.13;;;;;;;;;;6340985;22;20209;-93
2022/05/23 06:00:08;;;;;;;141.32;60.90;;;;;;;;;;6311255;22;20007;-91
2022/05/23 06:02:33;;;;;;;125.75;56.13;;;;;;;;;;6338567;22;20011;-93
2022/05/23 06:05:02;;;;;;;123.18;57.83;;;;;;;;;;6339045;22;20018;-93
2022/05/23 06:12:59;;;;;;;82.80;43.72;;;;;;;;;;6334962;22;20060;-90
2022/05/23 06:15:25;;;;;;;56.00;30.02;;;;;;;;;;6334048;22;20089;-90
2022/05/23 06:17:56;;;;;;;67.30;38.22;;;;;;;;;;6335928;22;20014;-89
2022/05/23 06:20:23;;;;;;;121.63;56.70;;;;;;;;;;6336137;22;20021;-87
2022/05/23 06:22:50;;;;;;;109.65;52.78;;;;;;;;;;6345474;22;20008;-88
2022/05/23 06:25:16;;;;;;;132.38;58.92;;;;;;;;;;6360041;22;20370;-88
2022/05/23 06:27:50;;;;;;;156.57;63.50;;;;;;;;;;6360708;22;20007;-86
2022/05/23 06:30:17;;;;;;;102.20;50.67;;;;;;;;;;6352022;22;20007;-92
2022/05/23 06:32:44;;;;;;;83.57;45.83;;;;;;;;;;6311935;22;20390;-91
2022/05/23 06:35:13;;;;;;;89.90;47.45;;;;;;;;;;6338816;22;19998;-90
2022/05/23 06:37:40;;;;;;;96.03;48.35;;;;;;;;;;6307495;22;20003;-92
2022/05/23 06:40:09;;;;;;;143.43;56.55;;;;;;;;;;6334669;22;20078;-92
2022/05/23 06:42:36;;;;;;;151.85;63.75;;;;;;;;;;6335645;22;20034;-93
2022/05/23 06:45:02;;;;;;;118.07;55.70;;;;;;;;;;6335044;22;20366;-93
2022/05/23 06:47:29;;;;;;;132.75;57.90;;;;;;;;;;6307551;22;20427;-94
2022/05/23 06:49:55;;;;;;;134.52;59.13;;;;;;;;;;6308065;22;20383;-88
2022/05/23 06:52:21;;;;;;;137.38;60.03;;;;;;;;;;6335719;22;20006;-90
2022/05/23 06:54:47;;;;;;;199.20;74.93;;;;;;;;;;6306861;22;20009;-92
2022/05/23 06:57:13;;;;;;;201.90;75.10;;;;;;;;;;6307243;22;20072;-90
2022/05/23 06:59:39;;;;;;;206.43;77.43;;;;;;;;;;6334101;22;20365;-92
2022/05/23 07:02:07;;;;;;;204.52;76.68;;;;;;;;;;6334354;22;20077;-92
2022/05/23 07:12:51;;;;;;;187.85;72.25;;;;;;;;;;6335955;22;20042;-91
2022/05/23 07:15:17;;;;;;;165.07;67.10;;;;;;;;;;6334154;22;20351;-92
2022/05/23 07:17:44;;;;;;;176.52;70.90;;;;;;;;;;6306871;22;20059;-91
2022/05/23 07:20:11;;;;;;;185.63;71.65;;;;;;;;;;6306778;22;20414;-91
2022/05/23 07:22:37;;;;;;;201.18;75.85;;;;;;;;;;6306682;22;20330;-91
2022/05/23 07:25:03;;;;;;;189.63;73.22;;;;;;;;;;6333985;22;20406;-90
2022/05/23 07:27:30;;;;;;;173.25;68.78;;;;;;;;;;6334672;22;20072;-90
2022/05/23 07:29:56;;;;;;;148.40;63.35;;;;;;;;;;6336620;22;19995;-87
2022/05/23 07:32:22;;;;;;;153.48;64.07;;;;;;;;;;6336878;22;20002;-92
2022/05/23 07:34:48;;;;;;;169.75;67.72;;;;;;;;;;6335740;22;20006;-91
2022/05/23 07:37:15;;;;;;;167.77;67.50;;;;;;;;;;6336133;22;20324;-91
2022/05/23 07:39:41;;;;;;;165.60;67.65;;;;;;;;;;6335646;22;19995;-93
2022/05/23 07:42:07;;;;;;;170.10;68.28;;;;;;;;;;6335927;22;20006;-94
2022/05/23 07:44:34;;;;;;;167.30;68.13;;;;;;;;;;6308452;22;20332;-91
2022/05/23 07:47:00;;;;;;;148.18;63.25;;;;;;;;;;6336032;22;19999;-91
2022/05/23 07:49:29;;;;;;;122.68;57.20;;;;;;;;;;6309395;22;20086;-92
2022/05/23 07:51:56;;;;;;;132.30;59.03;;;;;;;;;;6309165;22;20078;-92
2022/05/23 08:02:39;;;;;;;147.75;63.60;;;;;;;;;;6335322;22;20045;-90
2022/05/23 08:05:05;;;;;;;119.43;56.30;;;;;;;;;;6335479;22;20001;-93
2022/05/23 08:07:31;;;;;;;122.50;56.83;;;;;;;;;;6335602;22;20488;-90
2022/05/23 08:10:00;;;;;;;123.38;56.60;;;;;;;;;;6309465;22;20327;-91
2022/05/23 08:12:27;;;;;;;105.07;52.28;;;;;;;;;;6336487;22;20019;-92
2022/05/23 08:14:54;;;;;;;117.10;55.67;;;;;;;;;;6336493;22;20007;-91
2022/05/23 08:17:20;;;;;;;107.45;53.58;;;;;;;;;;6335261;22;20026;-92
2022/05/23 08:19:46;;;;;;;124.55;56.85;;;;;;;;;;6335502;22;19999;-91
2022/05/23 08:22:12;;;;;;;75.13;42.85;;;;;;;;;;6336605;22;20030;-92
2022/05/23 08:24:38;;;;;;;62.92;36.88;;;;;;;;;;6335426;22;19994;-91
2022/05/23 08:27:06;;;;;;;84.78;46.55;;;;;;;;;;6308709;22;20003;-93
2022/05/23 08:29:32;;;;;;;113.27;54.37;;;;;;;;;;6336743;22;20003;-91
2022/05/23 08:31:59;;;;;;;232.85;83.13;;;;;;;;;;6342327;22;20014;-92
2022/05/23 08:34:25;;;;;;;235.45;82.95;;;;;;;;;;6342165;22;19995;-93
2022/05/23 08:36:52;;;;;;;423.50;125.70;;;;;;;;;;6343282;22;20003;-93
2022/05/23 08:39:18;;;;;;;220.13;79.80;;;;;;;;;;6336581;22;19999;-93
2022/05/23 08:41:45;;;;;;;196.13;73.78;;;;;;;;;;6311720;22;20017;-93
2022/05/23 08:44:18;;;;;;;169.73;67.22;;;;;;;;;;6336831;22;20003;-93
2022/05/23 08:46:47;;;;;;;181.38;68.93;;;;;;;;;;6336076;22;20002;-93
2022/05/23 08:49:27;;;;;;;176.20;68.47;;;;;;;;;;6335696;22;20026;-92
2022/05/23 08:52:08;;;;;;;173.93;67.57;;;;;;;;;;6335829;22;20003;-92
2022/05/23 08:54:48;;;;;;;163.48;65.35;;;;;;;;;;6335931;22;20010;-93
2022/05/23 08:57:35;;;;;;;123.15;56.33;;;;;;;;;;6336064;22;20406;-94
2022/05/23 09:00:04;;;;;;;111.87;53.53;;;;;;;;;;6337614;22;20010;-86
2022/05/23 09:02:33;;;;;;;98.95;50.03;;;;;;;;;;6361398;22;19995;-88
2022/05/23 09:05:02;;;;;;;118.50;53.03;;;;;;;;;;6363003;22;20008;-88
2022/05/23 09:07:32;;;;;;;104.35;51.25;;;;;;;;;;6364174;22;20003;-92
2022/05/23 09:10:01;;;;;;;111.03;52.08;;;;;;;;;;6344067;22;20381;-94
2022/05/23 09:12:27;;;;;;;96.03;49.10;;;;;;;;;;6339745;22;20002;-93
2022/05/23 09:14:53;;;;;;;48.15;29.63;;;;;;;;;;6337284;22;20003;-94
2022/05/23 09:17:21;;;;;;;93.43;49.30;;;;;;;;;;6336243;22;20033;-93
2022/05/23 09:19:54;;;;;;;123.93;56.90;;;;;;;;;;6336754;22;20446;-94
2022/05/23 09:22:24;;;;;;;155.43;63.50;;;;;;;;;;6336939;22;20003;-93
2022/05/23 09:24:54;;;;;;;145.65;61.65;;;;;;;;;;6341232;22;20027;-93
2022/05/23 09:27:29;;;;;;;157.68;64.18;;;;;;;;;;6342897;22;20003;-92
2022/05/23 09:29:56;;;;;;;195.13;72.53;;;;;;;;;;6346201;22;20347;-94
2022/05/23 09:32:24;;;;;;;120.80;56.17;;;;;;;;;;6336951;22;20064;-92
2022/05/23 09:34:52;;;;;;;124.37;55.93;;;;;;;;;;6336626;22;20396;-94
2022/05/23 09:37:30;;;;;;;145.68;62.22;;;;;;;;;;6337602;22;20006;-95
2022/05/23 09:39:58;;;;;;;137.68;59.92;;;;;;;;;;6310595;22;20465;-92
2022/05/23 09:48:27;;;;;;;162.10;66.05;;;;;;;;;;6327084;22;20018;-92
2022/05/23 09:50:55;;;;;;;227.65;82.20;;;;;;;;;;6339467;22;20269;-94
2022/05/23 09:53:24;;;;;;;372.42;115.20;;;;;;;;;;6338657;22;20003;-95
2022/05/23 09:55:51;;;;;;;251.27;86.85;;;;;;;;;;6338325;22;20385;-94
2022/05/23 09:58:25;;;;;;;235.75;84.38;;;;;;;;;;6340158;22;20006;-93
2022/05/23 10:01:11;;;;;;;213.30;79.70;;;;;;;;;;6345679;22;20011;-95
2022/05/23 10:03:47;;;;;;;200.30;76.07;;;;;;;;;;6324397;22;19991;-89
2022/05/23 10:06:16;;;;;;;200.17;76.03;;;;;;;;;;6354531;22;20003;-93
2022/05/23 10:09:03;;;;;;;207.20;77.45;;;;;;;;;;6350172;22;19999;-92
2022/05/23 10:11:32;;;;;;;177.88;70.43;;;;;;;;;;6357917;22;20007;-92
2022/05/23 10:14:05;;;;;;;206.82;77.13;;;;;;;;;;6349487;22;20316;-92
2022/05/23 10:16:55;;;;;;;242.52;85.45;;;;;;;;;;6349068;22;20006;-92
2022/05/23 10:19:28;;;;;;;256.60;87.25;;;;;;;;;;6334033;22;20002;-91
2022/05/23 10:22:07;;;;;;;213.15;76.15;;;;;;;;;;6350299;22;20015;-89
2022/05/23 10:24:51;;;;;;;186.10;69.82;;;;;;;;;;6346487;22;20023;-92
2022/05/23 10:27:44;;;;;;;180.57;68.18;;;;;;;;;;6345316;22;19998;-94
2022/05/23 10:30:11;;;;;;;186.52;69.43;;;;;;;;;;6301012;22;20010;-87
2022/05/23 10:32:50;;;;;;;186.55;69.35;;;;;;;;;;6349416;22;20042;-88
2022/05/23 10:35:25;;;;;;;158.40;62.83;;;;;;;;;;6347933;22;20496;-92
2022/05/23 10:37:53;;;;;;;155.30;62.35;;;;;;;;;;6348172;22;20003;-93
2022/05/23 10:43:12;;;;;;;153.85;61.88;;;;;;;;;;6343782;22;20527;-87
2022/05/23 10:45:50;;;;;;;171.48;65.95;;;;;;;;;;6347948;22;19998;-92
2022/05/23 10:48:27;;;;;;;166.60;65.18;;;;;;;;;;6349322;22;20077;-91
2022/05/23 10:50:55;;;;;;;163.25;63.78;;;;;;;;;;6354989;22;19994;-93
2022/05/23 10:53:24;;;;;;;167.73;66.13;;;;;;;;;;6321753;22;19999;-94
2022/05/23 10:56:04;;;;;;;158.73;63.83;;;;;;;;;;6356097;22;20027;-94
2022/05/23 10:59:01;;;;;;;165.25;64.13;;;;;;;;;;6349931;22;19995;-92
2022/05/23 11:01:47;;;;;;;173.23;64.25;;;;;;;;;;6347450;22;20439;-94
2022/05/23 11:04:13;;;;;;;;;;;;;;;;;;6361898;22;19999;-90
2022/05/23 11:06:39;;;;;;;195.55;71.07;;;;;;;;;;6361518;22;19902;-91
2022/05/23 11:09:15;;;;;;;137.80;57.83;;;;;;;;;;6332119;22;20018;-88
2022/05/23 11:11:52;;;;;;;149.75;61.03;;;;;;;;;;6361116;22;19999;-91
2022/05/23 11:14:29;;;;;;;152.15;62.28;;;;;;;;;;6353272;22;20007;-92
2022/05/23 11:17:01;;;;;;;145.90;59.88;;;;;;;;;;6354811;22;20041;-94
2022/05/23 11:19:33;;;;;;;141.85;58.95;;;;;;;;;;6363203;22;20003;-88
2022/05/23 11:22:14;;;;;;;120.32;54.13;;;;;;;;;;6355366;22;20007;-93
2022/05/23 11:24:43;;;;;;;110.82;50.67;;;;;;;;;;6358365;22;20005;-92
2022/05/23 11:33:49;;;;;;;178.68;67.13;;;;;;;;;;6359670;22;20017;-89
2022/05/23 11:36:24;;;;;;;160.45;62.42;;;;;;;;;;6359210;22;20010;-92
2022/05/23 11:38:51;;;;;;;126.57;55.50;;;;;;;;;;6362297;22;19999;-88
2022/05/23 11:41:39;;;;;;;135.23;57.80;;;;;;;;;;6365049;22;19999;-89
2022/05/23 11:44:28;;;;;;;131.32;56.20;;;;;;;;;;6365583;22;20003;-88
2022/05/23 11:47:21;;;;;;;151.90;61.20;;;;;;;;;;6306194;22;19990;-88
2022/05/23 11:49:49;;;;;;;147.65;60.22;;;;;;;;;;6352999;22;20052;-94
2022/05/23 11:52:40;;;;;;;82.95;43.28;;;;;;;;;;6312319;22;20010;-92
2022/05/23 11:55:26;;;;;;;102.32;49.47;;;;;;;;;;6301798;22;20462;-94
2022/05/23 11:58:15;;;;;;;121.18;52.55;;;;;;;;;;6340845;22;20007;-92
2022/05/23 12:00:43;;;;;;;75.57;41.15;;;;;;;;;;6310460;22;20014;-90
2022/05/23 12:03:12;;;;;;;95.80;47.25;;;;;;;;;;6340492;22;20382;-95
2022/05/23 12:05:38;;;;;;;;;;;;;;;;;;6340989;22;19999;-94
2022/05/23 12:11:01;;;;;;;126.45;55.08;;;;;;;;;;6336314;22;20085;-94
2022/05/23 12:13:30;;;;;;;133.20;56.90;;;;;;;;;;6337308;22;20019;-93
2022/05/23 12:16:22;;;;;;;123.13;54.63;;;;;;;;;;6309140;22;20011;-92
2022/05/23 12:18:49;;;;;;;109.50;51.00;;;;;;;;;;6336406;22;20335;-92
2022/05/23 12:21:36;;;;;;;205.10;72.82;;;;;;;;;;6308925;22;20439;-93
2022/05/23 12:24:15;;;;;;;133.70;56.65;;;;;;;;;;6308722;22;20450;-91
2022/05/23 12:27:09;;;;;;;97.47;47.85;;;;;;;;;;6310015;22;20006;-93
2022/05/23 12:30:08;;;;;;;;;;;;;;;;;;;;;
2022/05/23 12:33:01;;;;;;;78.15;41.90;;;;;;;;;;6287367;22;20079;-92
2022/05/23 12:38:44;;;;;;;69.72;37.95;;;;;;;;;;6180539;23;20434;-90
2022/05/23 12:41:39;;;;;;;69.88;38.47;;;;;;;;;;6181488;23;20017;-93
2022/05/23 12:44:19;;;;;;;62.80;35.95;;;;;;;;;;6179657;23;20056;-92
2022/05/23 12:46:59;;;;;;;62.97;34.92;;;;;;;;;;6234016;23;20004;-92
2022/05/23 12:49:43;;;;;;;63.17;35.05;;;;;;;;;;6244546;22;20014;-92
2022/05/23 12:52:56;;;;;;;;;;;;;;;;;;;;;
2022/05/23 12:55:40;;;;;;;57.00;34.50;;;;;;;;;;6332645;22;20003;-91
2022/05/23 12:58:47;;;;;;;45.83;27.40;;;;;;;;;;6336289;22;20005;-92
2022/05/23 13:01:36;;;;;;;47.20;27.27;;;;;;;;;;6291047;22;20170;-93
2022/05/23 13:04:15;;;;;;;44.22;24.02;;;;;;;;;;6334855;22;20021;-93
2022/05/23 13:10:31;;;;;;;48.08;26.52;;;;;;;;;;6224255;22;20343;-91
2022/05/23 13:12:57;;;;;;;41.83;21.52;;;;;;;;;;6308136;22;20006;-93
2022/05/23 13:15:25;;;;;;;22.80;12.40;;;;;;;;;;6335559;22;20072;-93
2022/05/23 13:17:53;;;;;;;38.70;15.73;;;;;;;;;;6336114;22;20066;-94
2022/05/23 13:23:29;;;;;;;;;;;;;;;;;;;;;
2022/05/23 13:25:59;;;;;;;22.02;11.80;;;;;;;;;;6335458;22;20058;-92
2022/05/23 13:31:33;;;;;;;16.40;5.82;;;;;;;;;;6288581;22;20011;-89
2022/05/23 13:34:33;;;;;;;;;;;;;;;;;;;;;
2022/05/23 13:37:46;;;;;;;14.60;5.53;;;;;;;;;;6335674;22;20083;-94
2022/05/23 13:40:37;;;;;;;12.20;5.47;;;;;;;;;;6335125;22;20341;-92
2022/05/23 13:43:14;;;;;;;15.32;6.55;;;;;;;;;;6301426;22;20007;-93
2022/05/23 13:45:53;;;;;;;9.23;4.35;;;;;;;;;;6334842;22;20010;-93
2022/05/23 13:48:53;;;;;;;;;;;;;;;;;;;;;
2022/05/23 13:51:48;;;;;;;10.48;4.82;;;;;;;;;;6327778;22;20042;-93
2022/05/23 13:54:37;;;;;;;;;;;;;;;;;;;;;
2022/05/23 13:57:37;;;;;;;46.83;28.30;;;;;;;;;;6334971;22;20081;-92
2022/05/23 14:00:21;;;;;;;69.03;39.13;;;;;;;;;;6285977;22;20010;-90
2022/05/23 14:02:55;;;;;;;57.30;32.70;;;;;;;;;;6335414;22;20343;-89
2022/05/23 14:05:34;;;;;;;;;;;;;;;;;;;;;
2022/05/23 14:08:34;;;;;;;;;;;;;;;;;;;;;
2022/05/23 14:11:41;;;;;;;67.78;35.92;;;;;;;;;;6335502;22;20082;-93
2022/05/23 14:14:38;;;;;;;172.70;66.35;;;;;;;;;;6331436;22;20085;-92
2022/05/23 14:17:20;;;;;;;64.45;33.83;;;;;;;;;;6310496;22;20026;-92
2022/05/23 14:19:49;;;;;;;42.28;22.80;;;;;;;;;;6335523;22;20009;-92
2022/05/23 14:22:25;;;;;;;58.60;33.97;;;;;;;;;;6335801;22;20003;-91
2022/05/23 14:25:01;;;;;;;61.63;34.40;;;;;;;;;;6317216;22;20003;-93
2022/05/23 14:27:37;;;;;;;42.72;24.95;;;;;;;;;;6317221;22;20431;-92
2022/05/23 14:30:13;;;;;;;51.42;28.45;;;;;;;;;;6307438;22;20036;-93
2022/05/23 14:32:42;;;;;;;40.08;23.23;;;;;;;;;;6334779;22;20009;-90
2022/05/23 14:35:15;;;;;;;59.42;33.20;;;;;;;;;;6335415;22;20003;-90
2022/05/23 14:37:44;;;;;;;58.13;33.90;;;;;;;;;;6335977;22;19999;-90
2022/05/23 14:40:13;;;;;;;51.05;31.42;;;;;;;;;;6309045;22;20019;-93
2022/05/23 14:42:43;;;;;;;84.35;44.42;;;;;;;;;;6336825;22;20319;-91
2022/05/23 14:45:22;;;;;;;118.85;50.65;;;;;;;;;;6337184;22;20530;-92
2022/05/23 14:48:07;;;;;;;103.07;48.42;;;;;;;;;;6345332;22;19999;-94
2022/05/23 14:50:38;;;;;;;121.90;54.25;;;;;;;;;;6340827;22;20073;-88
2022/05/23 14:56:22;;;;;;;;;;;;;;;;;;;;;
2022/05/23 15:01:39;;;;;;;121.45;54.20;;;;;;;;;;6342674;22;20359;-92
2022/05/23 15:04:07;;;;;;;;;;;;;;;;;;6344535;22;20021;-93
2022/05/23 15:06:33;;;;;;;;;;;;;;;;;;6347250;22;19902;-91
2022/05/23 15:09:18;;;;;;;133.18;56.60;;;;;;;;;;6321192;22;19906;-92
2022/05/23 15:11:44;;;;;;;104.25;49.80;;;;;;;;;;6337817;22;19995;-91
2022/05/23 15:14:14;;;;;;;112.97;51.65;;;;;;;;;;6309236;22;20060;-93
2022/05/23 15:16:41;;;;;;;84.45;44.13;;;;;;;;;;6308718;22;20264;-92
2022/05/23 15:19:29;;;;;;;88.25;45.17;;;;;;;;;;6308737;22;20010;-91
2022/05/23 15:22:01;;;;;;;77.75;41.95;;;;;;;;;;6236484;22;20354;-94
2022/05/23 15:24:30;;;;;;;77.35;41.63;;;;;;;;;;6338113;22;19999;-92
2022/05/23 15:26:56;;;;;;;79.90;42.15;;;;;;;;;;6307934;22;20010;-91
2022/05/23 15:29:32;;;;;;;72.20;37.88;;;;;;;;;;6339344;22;20078;-89
2022/05/23 15:31:59;;;;;;;80.70;42.28;;;;;;;;;;6335606;22;20003;-87
2022/05/23 15:34:26;;;;;;;167.00;64.57;;;;;;;;;;6334677;22;19999;-88
2022/05/23 15:36:53;;;;;;;84.50;44.08;;;;;;;;;;6337143;22;20125;-89
2022/05/23 15:39:19;;;;;;;115.47;53.17;;;;;;;;;;6343524;22;20001;-92
2022/05/23 15:42:21;;;;;;;;;;;;;;;;;;;;;
2022/05/23 15:50:35;;;;;;;145.68;60.60;;;;;;;;;;6336685;22;20057;-92
2022/05/23 15:53:11;;;;;;;138.85;58.58;;;;;;;;;;6345397;22;20507;-93
2022/05/23 15:55:50;;;;;;;140.43;59.30;;;;;;;;;;6347469;22;20030;-92
2022/05/23 16:01:33;;;;;;;;;;;;;;;;;;;;;
2022/05/23 16:04:22;;;;;;;121.40;54.58;;;;;;;;;;6240332;23;20072;-89
2022/05/23 16:07:14;;;;;;;135.55;55.15;;;;;;;;;;6311371;22;20462;-91
2022/05/23 16:09:40;;;;;;;136.30;56.63;;;;;;;;;;6279820;22;20007;-88
2022/05/23 16:12:11;;;;;;;144.82;58.88;;;;;;;;;;6334639;22;19995;-89
2022/05/23 16:14:37;;;;;;;122.68;53.25;;;;;;;;;;6334569;22;20074;-89
2022/05/23 16:17:05;;;;;;;115.97;53.13;;;;;;;;;;6334618;22;20439;-88
2022/05/23 16:19:36;;;;;;;117.82;53.25;;;;;;;;;;6306648;22;20090;-88
2022/05/23 16:22:04;;;;;;;136.20;56.42;;;;;;;;;;6306655;22;20025;-91
2022/05/23 16:24:30;;;;;;;128.57;55.60;;;;;;;;;;6307483;22;20003;-92
2022/05/23 16:26:58;;;;;;;90.53;45.10;;;;;;;;;;6335367;22;20323;-92
2022/05/23 16:29:24;;;;;;;;;;;;;;;;;;6336318;22;20446;-91
2022/05/23 16:31:53;;;;;;;129.40;55.13;;;;;;;;;;6308511;22;19906;-92
2022/05/23 16:37:04;;;;;;;99.18;47.80;;;;;;;;;;6335068;22;20014;-92
2022/05/23 16:39:33;;;;;;;103.45;49.38;;;;;;;;;;6336762;22;20305;-95
2022/05/23 16:41:59;;;;;;;110.85;50.95;;;;;;;;;;6309764;22;20033;-91
2022/05/23 16:44:25;;;;;;;110.68;51.08;;;;;;;;;;6336108;22;20003;-92
2022/05/23 16:46:52;;;;;;;109.63;50.10;;;;;;;;;;6335478;22;19999;-89
2022/05/23 16:49:18;;;;;;;126.45;53.97;;;;;;;;;;6335089;22;20070;-90
2022/05/23 16:51:45;;;;;;;115.55;51.03;;;;;;;;;;6334355;22;20241;-91
2022/05/23 16:54:14;;;;;;;120.15;53.10;;;;;;;;;;6334554;22;20076;-89